TimeEST,TemperatureF,Dew PointF,Humidity,Sea Level PressureIn,VisibilityMPH,Wind Direction,Wind SpeedMPH,Gust SpeedMPH,PrecipitationIn,Events,Conditions,WindDirDegrees,DateUTC
12:15 AM,55.9,55.4,98,29.95,7.0,Calm,Calm,-,N/A,Rain,Light Rain,0,2013-01-17 05:15:00
12:35 AM,55.8,55.4,99,29.95,7.0,Calm,Calm,-,N/A,Rain,Light Rain,0,2013-01-17 05:35:00
12:55 AM,55.6,55.2,99,29.95,5.0,Calm,Calm,-,N/A,,Drizzle,0,2013-01-17 05:55:00
1:15 AM,55.8,55.4,99,29.94,5.0,Calm,Calm,-,N/A,,Heavy Drizzle,0,2013-01-17 06:15:00
1:35 AM,55.8,55.6,99,29.93,7.0,Calm,Calm,-,N/A,Rain,Rain,0,2013-01-17 06:35:00
1:55 AM,55.9,55.6,99,29.92,10.0,Calm,Calm,-,N/A,,Light Drizzle,0,2013-01-17 06:55:00
2:15 AM,56.3,55.9,99,29.93,10.0,Calm,Calm,-,N/A,,Overcast,0,2013-01-17 07:15:00
2:35 AM,56.5,56.1,99,29.91,7.0,Calm,Calm,-,N/A,Rain,Light Rain,0,2013-01-17 07:35:00
2:55 AM,56.5,56.3,99,29.90,10.0,Calm,Calm,-,N/A,,Overcast,0,2013-01-17 07:55:00
3:15 AM,56.7,56.3,99,29.90,10.0,Calm,Calm,-,N/A,Rain,Light Rain,0,2013-01-17 08:15:00
3:35 AM,56.7,56.3,99,29.89,10.0,Calm,Calm,-,N/A,Rain,Light Rain,0,2013-01-17 08:35:00
3:55 AM,57.2,57.2,100,29.88,7.0,Calm,Calm,-,N/A,Rain,Rain,0,2013-01-17 08:55:00
4:15 AM,57.2,57.2,100,29.88,7.0,Calm,Calm,-,N/A,Rain,Light Rain,0,2013-01-17 09:15:00
4:35 AM,56.5,56.3,99,29.87,7.0,Calm,Calm,-,N/A,,Light Drizzle,0,2013-01-17 09:35:00
4:55 AM,56.3,56.1,99,29.87,3.0,Calm,Calm,-,N/A,Rain,Light Rain,0,2013-01-17 09:55:00
5:15 AM,55.9,55.8,99,29.86,2.5,Calm,Calm,-,N/A,Rain,Rain,0,2013-01-17 10:15:00
5:35 AM,55.9,55.8,99,29.86,2.5,Calm,Calm,-,N/A,,Drizzle,0,2013-01-17 10:35:00
5:55 AM,55.9,55.8,99,29.85,2.0,Calm,Calm,-,N/A,Rain,Rain,0,2013-01-17 10:55:00
6:15 AM,55.8,55.8,100,29.85,2.5,Calm,Calm,-,N/A,,Drizzle,0,2013-01-17 11:15:00
6:35 AM,55.8,55.8,100,29.84,3.0,Calm,Calm,-,N/A,,Heavy Drizzle,0,2013-01-17 11:35:00
6:55 AM,55.8,55.8,100,29.84,5.0,WSW,4.6,-,N/A,Rain,Rain,250,2013-01-17 11:55:00
7:15 AM,55.6,55.0,98,29.84,5.0,SW,5.8,-,N/A,Rain,Heavy Rain,230,2013-01-17 12:15:00
7:35 AM,55.0,54.5,98,29.84,4.0,WSW,8.1,-,N/A,Rain,Heavy Rain,240,2013-01-17 12:35:00
7:55 AM,53.8,52.9,97,29.85,5.0,SW,11.5,-,N/A,Rain,Heavy Rain,230,2013-01-17 12:55:00
8:15 AM,52.0,50.7,95,29.87,4.0,WSW,11.5,18.4,N/A,,Heavy Drizzle,240,2013-01-17 13:15:00
8:35 AM,50.2,48.7,95,29.88,3.0,WSW,11.5,-,N/A,,Drizzle,240,2013-01-17 13:35:00
8:55 AM,48.4,47.1,95,29.89,2.0,SW,9.2,18.4,N/A,,Drizzle,230,2013-01-17 13:55:00
9:15 AM,47.3,45.7,94,29.89,4.0,WSW,10.4,-,N/A,,Overcast,240,2013-01-17 14:15:00
9:35 AM,46.6,45.3,95,29.89,7.0,WSW,8.1,-,N/A,,Overcast,240,2013-01-17 14:35:00
9:55 AM,45.5,43.9,94,29.89,5.0,SW,11.5,21.9,N/A,,Overcast,230,2013-01-17 14:55:00
10:15 AM,44.4,43.7,97,29.90,7.0,SW,11.5,16.1,N/A,,Overcast,230,2013-01-17 15:15:00
10:35 AM,43.3,41.7,94,29.91,10.0,SW,16.1,23.0,N/A,,Overcast,220,2013-01-17 15:35:00
10:55 AM,42.8,41.2,94,29.90,10.0,SW,15.0,18.4,N/A,,Overcast,230,2013-01-17 15:55:00
11:15 AM,41.9,40.6,95,29.91,4.0,WSW,11.5,-,N/A,,Overcast,240,2013-01-17 16:15:00
11:35 AM,41.9,40.3,94,29.90,2.5,WSW,13.8,20.7,N/A,,Drizzle,250,2013-01-17 16:35:00
11:55 AM,41.4,39.2,92,29.89,7.0,SW,15.0,20.7,N/A,,Overcast,230,2013-01-17 16:55:00
12:15 PM,40.6,37.9,90,29.89,10.0,WSW,15.0,21.9,N/A,,Overcast,240,2013-01-17 17:15:00
12:35 PM,40.5,37.8,90,29.88,10.0,WSW,15.0,21.9,N/A,,Overcast,250,2013-01-17 17:35:00
12:55 PM,40.3,38.3,93,29.89,10.0,WSW,11.5,23.0,N/A,,Light Drizzle,250,2013-01-17 17:55:00
1:15 PM,39.9,38.1,93,29.88,2.5,WSW,12.7,21.9,N/A,Rain,Rain,240,2013-01-17 18:15:00
1:35 PM,39.7,38.1,94,29.87,5.0,WSW,9.2,16.1,N/A,,Light Drizzle,240,2013-01-17 18:35:00
1:55 PM,39.7,38.1,94,29.87,7.0,WSW,13.8,19.6,N/A,Rain,Light Rain,240,2013-01-17 18:55:00
2:15 PM,39.6,37.6,93,29.86,7.0,WSW,9.2,17.3,N/A,,Overcast,250,2013-01-17 19:15:00
2:35 PM,40.1,37.6,91,29.87,10.0,WSW,15.0,18.4,N/A,Rain,Rain,250,2013-01-17 19:35:00
2:55 PM,39.4,36.7,90,29.88,7.0,WSW,13.8,20.7,N/A,Rain,Rain,250,2013-01-17 19:55:00
3:15 PM,38.8,36.5,91,29.89,10.0,West,15.0,21.9,N/A,,Light Drizzle,260,2013-01-17 20:15:00
3:35 PM,38.3,36.0,91,29.90,7.0,West,11.5,24.2,N/A,,Drizzle,270,2013-01-17 20:35:00
3:55 PM,38.1,36.1,93,29.92,7.0,West,13.8,19.6,N/A,,Drizzle,270,2013-01-17 20:55:00
4:15 PM,38.3,36.0,91,29.93,10.0,West,13.8,21.9,N/A,,Drizzle,280,2013-01-17 21:15:00
4:35 PM,37.8,35.8,93,29.95,10.0,West,16.1,19.6,N/A,,Light Drizzle,280,2013-01-17 21:35:00
4:55 PM,37.9,35.6,91,29.97,10.0,WNW,13.8,23.0,N/A,,Light Drizzle,290,2013-01-17 21:55:00
5:15 PM,37.8,35.1,90,29.97,10.0,WNW,15.0,20.7,N/A,,Overcast,300,2013-01-17 22:15:00
5:35 PM,37.8,35.1,90,30.01,10.0,NW,15.0,20.7,N/A,,Overcast,320,2013-01-17 22:35:00
5:55 PM,38.1,34.7,87,30.01,10.0,NW,18.4,23.0,N/A,,Overcast,320,2013-01-17 22:55:00
6:35 PM,38.3,34.7,87,30.04,10.0,NW,18.4,25.3,N/A,,Overcast,320,2013-01-17 23:35:00
7:15 PM,39.4,34.7,83,30.07,10.0,NNW,13.8,23.0,N/A,,Overcast,330,2013-01-18 00:15:00
7:55 PM,40.1,35.6,84,30.12,10.0,NNW,13.8,23.0,N/A,,Overcast,330,2013-01-18 00:55:00
8:55 PM,41.2,34.9,78,30.17,10.0,North,10.4,20.7,N/A,,Overcast,360,2013-01-18 01:55:00
9:15 PM,41.0,34.3,77,30.18,10.0,North,9.2,19.6,N/A,,Mostly Cloudy,350,2013-01-18 02:15:00
9:35 PM,41.0,33.8,76,30.19,10.0,North,10.4,16.1,N/A,,Scattered Clouds,360,2013-01-18 02:35:00
9:55 PM,40.5,33.8,77,30.21,10.0,North,9.2,-,N/A,,Clear,360,2013-01-18 02:55:00
10:15 PM,40.5,33.6,77,30.21,10.0,North,9.2,-,N/A,,Clear,350,2013-01-18 03:15:00
10:35 PM,40.5,33.1,75,30.22,10.0,North,12.7,19.6,N/A,,Clear,360,2013-01-18 03:35:00
10:55 PM,40.5,32.7,74,30.24,10.0,North,9.2,19.6,N/A,,Clear,360,2013-01-18 03:55:00